Time;durP1;ratioP1;P1;durP2;ratioP2;P2;SDS_P1;SDS_P2;PMS_P1;PMS_P2;Temp;Humidity;BMP_temperature;BMP_pressure;BME280_temperature;BME280_humidity;BME280_pressure;Samples;Min_cycle;Max_cycle;Signal;HPM_P1;HPM_P2
2023/06/29 00:01:42;;;;;;;44.83;31.98;;;19.00;99.90;;;;;;4993290;28;20042;-67
2023/06/29 00:04:08;;;;;;;40.60;31.35;;;19.00;99.90;;;;;;4993471;28;20078;-67
2023/06/29 00:06:37;;;;;;;46.22;33.35;;;19.00;99.90;;;;;;4993858;28;20185;-72
2023/06/29 00:09:06;;;;;;;41.97;31.58;;;18.90;99.90;;;;;;4992402;28;20100;-66
2023/06/29 00:11:33;;;;;;;48.38;33.40;;;18.90;99.90;;;;;;4993646;28;20129;-66
2023/06/29 00:13:58;;;;;;;44.97;32.10;;;18.90;99.90;;;;;;4993272;28;20448;-68
2023/06/29 00:16:24;;;;;;;42.83;32.10;;;18.90;99.90;;;;;;4993296;28;20105;-66
2023/06/29 00:18:54;;;;;;;44.03;32.58;;;18.90;99.90;;;;;;4993133;28;20038;-67
2023/06/29 00:21:20;;;;;;;47.75;32.47;;;18.90;99.90;;;;;;4993267;28;20042;-65
2023/06/29 00:23:45;;;;;;;46.22;33.35;;;18.90;99.90;;;;;;4975845;28;20053;-66
2023/06/29 00:26:13;;;;;;;47.53;34.13;;;18.90;99.90;;;;;;4993339;28;20066;-67
2023/06/29 00:28:39;;;;;;;44.58;34.03;;;18.90;99.90;;;;;;4975526;28;20042;-74
2023/06/29 00:31:04;;;;;;;42.78;32.42;;;18.90;99.90;;;;;;4975762;28;20042;-67
2023/06/29 00:33:30;;;;;;;44.42;32.78;;;19.00;99.90;;;;;;4993313;28;20050;-67
2023/06/29 00:35:56;;;;;;;46.00;34.67;;;18.90;99.90;;;;;;4959384;28;20100;-67
2023/06/29 00:38:21;;;;;;;45.22;32.83;;;18.90;99.90;;;;;;4993277;28;20060;-67
2023/06/29 00:40:48;;;;;;;41.88;31.67;;;18.90;99.90;;;;;;4992646;28;20050;-66
2023/06/29 00:43:14;;;;;;;44.67;32.65;;;18.90;99.90;;;;;;4992831;28;20484;-66
2023/06/29 00:45:40;;;;;;;45.45;33.17;;;18.90;99.90;;;;;;4992624;28;20104;-72
2023/06/29 00:48:06;;;;;;;43.40;31.90;;;18.90;99.90;;;;;;4991913;28;20046;-66
2023/06/29 00:50:32;;;;;;;47.55;33.65;;;18.90;99.90;;;;;;4975259;28;20463;-65
2023/06/29 00:52:59;;;;;;;49.78;33.38;;;19.00;99.90;;;;;;4991830;28;20496;-66
2023/06/29 00:55:25;;;;;;;50.78;35.25;;;19.00;99.90;;;;;;4975555;28;20386;-66
2023/06/29 00:57:50;;;;;;;41.67;32.65;;;18.90;99.90;;;;;;4992417;28;20061;-65
2023/06/29 01:00:16;;;;;;;43.13;32.65;;;19.00;99.90;;;;;;4992897;28;20058;-66
2023/06/29 01:02:43;;;;;;;51.92;34.90;;;18.90;99.90;;;;;;4992245;28;20060;-72
2023/06/29 01:05:10;;;;;;;44.42;32.28;;;19.00;99.90;;;;;;4992718;28;20096;-65
2023/06/29 01:07:58;;;;;;;46.25;32.80;;;18.90;99.90;;;;;;4992641;28;20133;-65
2023/06/29 01:10:27;;;;;;;42.00;32.17;;;18.90;99.90;;;;;;4992828;28;20145;-66
2023/06/29 01:12:53;;;;;;;41.22;31.35;;;18.90;99.90;;;;;;4992274;28;20136;-65
2023/06/29 01:15:21;;;;;;;47.85;32.45;;;18.90;99.90;;;;;;4975387;28;20054;-65
2023/06/29 01:17:50;;;;;;;41.03;31.38;;;18.90;99.90;;;;;;4974882;28;20066;-66
2023/06/29 01:20:16;;;;;;;45.30;32.63;;;19.00;99.90;;;;;;4992569;28;20046;-65
2023/06/29 01:23:07;;;;;;;44.05;32.70;;;18.90;99.90;;;;;;4992516;28;20129;-66
2023/06/29 01:25:36;;;;;;;42.88;32.15;;;19.00;99.90;;;;;;4992635;28;20053;-66
2023/06/29 01:28:10;;;;;;;48.15;33.63;;;18.90;99.90;;;;;;4991973;28;20400;-65
2023/06/29 01:30:49;;;;;;;45.67;32.45;;;18.90;99.90;;;;;;4975202;28;20045;-65
2023/06/29 01:33:23;;;;;;;43.85;32.10;;;18.90;99.90;;;;;;4992483;28;20050;-66
2023/06/29 01:35:53;;;;;;;45.47;31.38;;;18.90;99.90;;;;;;4992040;28;20050;-67
2023/06/29 01:38:30;;;;;;;42.55;33.25;;;18.90;99.90;;;;;;4992364;28;20153;-66
2023/06/29 01:40:58;;;;;;;46.88;33.40;;;19.00;99.90;;;;;;4991732;28;20065;-71
2023/06/29 01:43:25;;;;;;;47.05;33.17;;;19.00;99.90;;;;;;4992107;28;20105;-66
2023/06/29 01:45:51;;;;;;;44.03;31.88;;;19.00;99.90;;;;;;4991565;28;20051;-65
2023/06/29 01:48:18;;;;;;;46.30;34.15;;;19.00;99.90;;;;;;4974794;28;20428;-65
2023/06/29 01:50:44;;;;;;;43.45;31.83;;;19.00;99.90;;;;;;4992068;28;20050;-69
2023/06/29 01:53:10;;;;;;;42.08;31.42;;;18.90;99.90;;;;;;4991270;28;20042;-66
2023/06/29 01:55:36;;;;;;;43.78;31.15;;;18.90;99.90;;;;;;4991721;28;20150;-66
2023/06/29 01:58:01;;;;;;;44.53;30.77;;;18.90;99.90;;;;;;4974552;28;20144;-66
2023/06/29 02:00:27;;;;;;;42.13;31.10;;;18.90;99.90;;;;;;4994078;28;20047;-66
2023/06/29 02:02:54;;;;;;;42.28;30.77;;;18.90;99.90;;;;;;4995063;28;20077;-66
2023/06/29 02:05:21;;;;;;;41.58;30.60;;;18.90;99.90;;;;;;4978388;28;20046;-66
2023/06/29 02:07:47;;;;;;;46.42;30.77;;;18.90;99.90;;;;;;4995855;28;20056;-66
2023/06/29 02:10:13;;;;;;;44.95;31.27;;;18.90;99.90;;;;;;4995567;28;20046;-65
2023/06/29 02:12:40;;;;;;;43.05;29.50;;;18.90;99.90;;;;;;4978681;28;20125;-65
2023/06/29 02:15:06;;;;;;;40.65;31.30;;;18.90;99.90;;;;;;4961924;28;20046;-64
2023/06/29 02:17:32;;;;;;;43.85;31.20;;;18.90;99.90;;;;;;4995429;28;20101;-65
2023/06/29 02:19:58;;;;;;;43.75;30.70;;;18.90;99.90;;;;;;4995453;28;20432;-65
2023/06/29 02:22:23;;;;;;;43.58;31.42;;;18.90;99.90;;;;;;4995544;28;20465;-66
2023/06/29 02:24:49;;;;;;;41.70;32.22;;;18.90;99.90;;;;;;4995683;28;20053;-67
2023/06/29 02:27:15;;;;;;;43.13;32.22;;;18.90;99.90;;;;;;4994437;28;20509;-67
2023/06/29 02:29:40;;;;;;;51.55;33.67;;;18.90;99.90;;;;;;4995497;28;20046;-67
2023/06/29 02:32:06;;;;;;;44.88;33.28;;;18.90;99.90;;;;;;4995015;28;20557;-67
2023/06/29 02:34:32;;;;;;;43.90;32.13;;;18.90;99.90;;;;;;4995826;28;20046;-67
2023/06/29 02:36:58;;;;;;;45.60;31.98;;;18.90;99.90;;;;;;4977702;28;20396;-68
2023/06/29 02:39:24;;;;;;;41.63;31.33;;;18.90;99.90;;;;;;4978136;28;20108;-66
2023/06/29 02:41:49;;;;;;;43.90;30.95;;;18.90;99.90;;;;;;4978031;28;20050;-65
2023/06/29 02:44:15;;;;;;;42.42;31.85;;;18.90;99.90;;;;;;4994977;28;20038;-65
2023/06/29 02:46:41;;;;;;;45.58;32.65;;;18.90;99.90;;;;;;4995239;28;20373;-65
2023/06/29 02:49:07;;;;;;;43.95;30.67;;;18.90;99.90;;;;;;4977242;28;20081;-66
2023/06/29 02:51:32;;;;;;;43.15;30.00;;;18.90;99.90;;;;;;4995217;28;20403;-66
2023/06/29 02:53:58;;;;;;;43.60;32.40;;;18.90;99.90;;;;;;4994966;28;20050;-72
2023/06/29 02:56:24;;;;;;;41.17;30.50;;;18.90;99.90;;;;;;4977547;28;20050;-65
2023/06/29 02:58:49;;;;;;;42.58;31.98;;;18.90;99.90;;;;;;4995028;28;20077;-66
2023/06/29 03:01:15;;;;;;;43.83;30.60;;;18.90;99.90;;;;;;4977330;28;20046;-67
2023/06/29 03:03:41;;;;;;;45.13;30.88;;;18.90;99.90;;;;;;4994639;28;20425;-66
2023/06/29 03:06:07;;;;;;;43.53;31.88;;;18.90;99.90;;;;;;4993309;28;20133;-66
2023/06/29 03:08:32;;;;;;;39.05;29.77;;;18.90;99.90;;;;;;4994798;28;20133;-66
2023/06/29 03:10:58;;;;;;;43.45;31.27;;;18.90;99.90;;;;;;4977069;28;20469;-66
2023/06/29 03:13:24;;;;;;;39.65;30.05;;;18.90;99.90;;;;;;4976735;28;20372;-66
2023/06/29 03:15:50;;;;;;;46.47;30.83;;;18.90;99.90;;;;;;4994459;28;20097;-66
2023/06/29 03:18:16;;;;;;;37.80;28.60;;;18.80;99.90;;;;;;4993988;28;20053;-66
2023/06/29 03:20:42;;;;;;;39.65;28.58;;;18.80;99.90;;;;;;4977246;28;20046;-66
2023/06/29 03:23:07;;;;;;;45.97;28.45;;;18.80;99.90;;;;;;4976945;28;20129;-67
2023/06/29 03:25:33;;;;;;;40.15;29.63;;;18.90;99.90;;;;;;4977313;28;20042;-67
2023/06/29 03:27:59;;;;;;;40.67;30.17;;;18.90;99.90;;;;;;4960867;28;20058;-66
2023/06/29 03:30:24;;;;;;;40.00;29.08;;;18.90;99.90;;;;;;4976294;28;20153;-66
2023/06/29 03:32:50;;;;;;;41.10;30.02;;;18.80;99.90;;;;;;4977015;28;20050;-66
2023/06/29 03:35:16;;;;;;;39.63;30.00;;;18.90;99.90;;;;;;4993944;28;20121;-66
2023/06/29 03:37:42;;;;;;;40.92;29.15;;;18.90;99.90;;;;;;4976898;28;20125;-66
2023/06/29 03:40:08;;;;;;;41.05;28.85;;;18.90;99.90;;;;;;4993860;28;20042;-67
2023/06/29 03:42:33;;;;;;;35.28;27.35;;;18.90;99.90;;;;;;4993615;28;20484;-65
2023/06/29 03:44:59;;;;;;;35.58;27.75;;;18.90;99.90;;;;;;4993982;28;20097;-65
2023/06/29 03:47:25;;;;;;;39.08;27.67;;;18.90;99.90;;;;;;4993489;28;20050;-67
2023/06/29 03:49:50;;;;;;;36.03;28.55;;;18.90;99.90;;;;;;4994010;28;20076;-66
2023/06/29 03:52:16;;;;;;;39.90;28.10;;;18.90;99.90;;;;;;4976045;28;20113;-66
2023/06/29 03:54:42;;;;;;;35.88;28.30;;;18.90;99.90;;;;;;4993891;28;20138;-66
2023/06/29 03:57:08;;;;;;;38.58;28.02;;;18.90;99.90;;;;;;4993738;28;20081;-73
2023/06/29 03:59:33;;;;;;;35.47;26.27;;;18.90;99.90;;;;;;4993790;28;20392;-66
2023/06/29 04:01:59;;;;;;;41.35;27.25;;;18.90;99.90;;;;;;4976223;28;20053;-66
2023/06/29 04:04:25;;;;;;;35.55;26.05;;;18.90;99.90;;;;;;4993213;28;20510;-65
2023/06/29 04:06:50;;;;;;;34.42;27.23;;;18.90;99.90;;;;;;4993571;28;20057;-65
2023/06/29 04:09:16;;;;;;;35.67;27.25;;;18.90;99.90;;;;;;4975723;28;20038;-65
2023/06/29 04:11:42;;;;;;;34.33;26.50;;;18.90;99.90;;;;;;4976138;28;20480;-66
2023/06/29 04:14:07;;;;;;;41.15;25.40;;;18.90;99.90;;;;;;4993495;28;20093;-69
2023/06/29 04:16:33;;;;;;;37.33;25.17;;;18.90;99.90;;;;;;4992930;28;20126;-66
2023/06/29 04:18:59;;;;;;;33.92;25.45;;;19.00;99.90;;;;;;4993676;28;20046;-67
2023/06/29 04:21:25;;;;;;;36.03;26.15;;;18.90;99.90;;;;;;4993215;28;20077;-67
2023/06/29 04:23:51;;;;;;;37.20;26.85;;;19.00;99.90;;;;;;4993134;28;20112;-67
2023/06/29 04:26:16;;;;;;;36.75;26.45;;;19.00;99.90;;;;;;4976119;28;20089;-66
2023/06/29 04:28:44;;;;;;;34.03;24.70;;;19.00;99.90;;;;;;4975855;28;20145;-65
2023/06/29 04:31:11;;;;;;;35.72;25.50;;;19.00;99.90;;;;;;4959836;28;20042;-69
2023/06/29 04:33:37;;;;;;;35.33;25.95;;;19.00;99.90;;;;;;4975668;28;20086;-67
2023/06/29 04:36:03;;;;;;;33.35;24.17;;;19.10;99.90;;;;;;4975665;28;20403;-65
2023/06/29 04:38:29;;;;;;;34.40;25.23;;;19.10;99.90;;;;;;4975442;28;20042;-65
2023/06/29 04:41:04;;;;;;;33.60;24.33;;;19.10;99.90;;;;;;4992846;28;20130;-65
2023/06/29 04:43:36;;;;;;;31.67;23.25;;;19.10;99.90;;;;;;4975370;28;20050;-67
2023/06/29 04:46:03;;;;;;;29.92;22.88;;;19.10;99.90;;;;;;4992677;28;20488;-66
2023/06/29 04:48:32;;;;;;;34.05;24.25;;;19.10;99.90;;;;;;4992541;28;20479;-65
2023/06/29 04:51:04;;;;;;;30.63;23.17;;;19.20;99.90;;;;;;4992966;28;20483;-65
2023/06/29 04:53:34;;;;;;;31.95;22.88;;;19.20;99.90;;;;;;4992520;28;20093;-66
2023/06/29 04:56:01;;;;;;;32.33;23.55;;;19.20;99.90;;;;;;4992547;28;20054;-65
2023/06/29 04:58:27;;;;;;;34.97;23.58;;;19.30;99.90;;;;;;4992201;28;20133;-65
2023/06/29 05:00:56;;;;;;;31.70;21.40;;;19.30;99.90;;;;;;4992470;28;20121;-65
2023/06/29 05:03:26;;;;;;;30.38;22.85;;;19.40;99.90;;;;;;4992066;28;20392;-65
2023/06/29 05:05:51;;;;;;;28.05;22.05;;;19.40;99.90;;;;;;4992015;28;20451;-66
2023/06/29 05:08:17;;;;;;;31.88;21.63;;;19.50;99.90;;;;;;4974951;28;20047;-73
2023/06/29 05:10:43;;;;;;;29.65;22.80;;;19.60;99.90;;;;;;4974997;28;20046;-66
2023/06/29 05:13:09;;;;;;;27.13;22.17;;;19.60;99.90;;;;;;4959295;28;20448;-66
2023/06/29 05:15:35;;;;;;;30.38;20.83;;;19.60;99.90;;;;;;4974774;28;20381;-70
2023/06/29 05:18:01;;;;;;;30.40;21.50;;;19.60;99.90;;;;;;4975191;28;20050;-66
2023/06/29 05:20:26;;;;;;;28.70;21.40;;;19.60;99.90;;;;;;4992195;28;20064;-67
2023/06/29 05:22:52;;;;;;;28.48;21.30;;;19.60;99.90;;;;;;4975086;28;20423;-66
2023/06/29 05:25:18;;;;;;;28.63;22.13;;;19.60;99.90;;;;;;4992126;28;20144;-73
2023/06/29 05:27:44;;;;;;;30.83;21.65;;;19.60;99.90;;;;;;4974778;28;20050;-66
2023/06/29 05:30:10;;;;;;;33.03;22.23;;;19.60;99.90;;;;;;4991147;28;20081;-66
2023/06/29 05:32:37;;;;;;;30.15;21.20;;;19.60;99.90;;;;;;4991507;28;20539;-66
2023/06/29 05:35:03;;;;;;;30.52;20.23;;;19.60;99.90;;;;;;4974761;28;20053;-65
2023/06/29 05:37:29;;;;;;;28.20;21.52;;;19.70;99.90;;;;;;4991544;28;20437;-66
2023/06/29 05:39:56;;;;;;;29.58;21.85;;;19.70;99.90;;;;;;4992333;28;20104;-65
2023/06/29 05:42:25;;;;;;;26.15;20.48;;;19.70;99.90;;;;;;4991956;28;20120;-71
2023/06/29 05:44:52;;;;;;;26.85;20.10;;;19.80;99.90;;;;;;4992332;28;20125;-66
2023/06/29 05:47:18;;;;;;;30.60;20.30;;;19.80;99.90;;;;;;4991841;28;20507;-66
2023/06/29 05:49:44;;;;;;;30.38;20.42;;;19.80;99.90;;;;;;4991559;28;20042;-66
2023/06/29 05:52:10;;;;;;;30.27;19.70;;;19.90;99.90;;;;;;4974472;28;20046;-66
2023/06/29 05:54:38;;;;;;;27.60;19.83;;;20.00;99.90;;;;;;4974162;28;20050;-67
2023/06/29 05:57:04;;;;;;;28.80;20.00;;;20.10;99.90;;;;;;4992120;28;20053;-65
2023/06/29 05:59:29;;;;;;;29.90;18.58;;;20.10;99.90;;;;;;4991401;28;20479;-65
2023/06/29 06:01:56;;;;;;;27.33;19.27;;;20.20;99.90;;;;;;4991912;28;20061;-64
2023/06/29 06:04:22;;;;;;;30.90;20.42;;;20.20;99.90;;;;;;4992046;28;20065;-67
2023/06/29 06:06:47;;;;;;;26.40;20.42;;;20.30;99.90;;;;;;4974236;28;20042;-67
2023/06/29 06:09:13;;;;;;;30.02;19.23;;;20.30;99.90;;;;;;4991725;28;20039;-68
2023/06/29 06:11:39;;;;;;;;;;;20.40;99.90;;;;;;4992003;28;20105;-67
2023/06/29 06:14:05;;;;;;;28.58;18.42;;;20.50;99.90;;;;;;4991818;28;20017;-69
2023/06/29 06:16:30;;;;;;;23.30;17.08;;;20.80;99.90;;;;;;4991623;28;20042;-69
2023/06/29 06:18:56;;;;;;;25.38;18.58;;;21.00;99.90;;;;;;4991860;28;20476;-68
2023/06/29 06:21:23;;;;;;;27.15;19.35;;;21.10;99.90;;;;;;4992010;28;20728;-68
2023/06/29 06:23:50;;;;;;;29.40;18.25;;;21.10;99.90;;;;;;4991313;28;20496;-67
2023/06/29 06:26:16;;;;;;;24.88;19.02;;;21.20;99.90;;;;;;4991855;28;20050;-68
2023/06/29 06:28:42;;;;;;;26.73;19.35;;;21.10;99.90;;;;;;4991235;28;20050;-68
2023/06/29 06:31:08;;;;;;;25.48;18.75;;;21.10;99.90;;;;;;4991849;28;20133;-69
2023/06/29 06:33:34;;;;;;;28.25;18.95;;;21.10;99.90;;;;;;4973979;28;20068;-69
2023/06/29 06:36:00;;;;;;;28.17;19.45;;;21.10;99.90;;;;;;4991835;28;20103;-67
2023/06/29 06:38:26;;;;;;;27.33;19.75;;;21.10;99.90;;;;;;4974262;28;20089;-67
2023/06/29 06:40:51;;;;;;;28.73;19.25;;;21.10;99.90;;;;;;4991213;28;20086;-67
2023/06/29 06:43:17;;;;;;;28.63;19.02;;;21.20;99.90;;;;;;4991781;28;20046;-69
2023/06/29 06:45:44;;;;;;;25.58;17.90;;;21.10;99.90;;;;;;4991276;28;20046;-68
2023/06/29 06:48:10;;;;;;;24.55;19.65;;;21.20;99.90;;;;;;4994273;28;20060;-68
2023/06/29 06:50:35;;;;;;;27.60;19.67;;;21.10;99.90;;;;;;4994517;28;20495;-68
2023/06/29 06:53:01;;;;;;;30.20;22.80;;;21.10;99.90;;;;;;4995034;28;20059;-65
2023/06/29 06:55:27;;;;;;;28.25;20.85;;;21.10;99.90;;;;;;4995137;28;20439;-70
2023/06/29 06:57:53;;;;;;;27.67;19.52;;;21.10;99.90;;;;;;4994524;28;20060;-69
2023/06/29 07:00:19;;;;;;;25.83;19.55;;;21.10;99.90;;;;;;4994810;28;20054;-69
2023/06/29 07:02:45;;;;;;;38.13;20.65;;;21.20;99.90;;;;;;4977100;28;20062;-70
2023/06/29 07:05:11;;;;;;;27.88;19.60;;;21.20;99.90;;;;;;4994698;28;20129;-69
2023/06/29 07:07:37;;;;;;;26.15;18.05;;;21.20;99.90;;;;;;4994478;28;20531;-69
2023/06/29 07:10:03;;;;;;;31.30;18.88;;;21.20;99.90;;;;;;4994553;28;20494;-68
2023/06/29 07:12:29;;;;;;;33.75;19.15;;;21.20;99.90;;;;;;4994592;28;20061;-68
2023/06/29 07:14:55;;;;;;;62.42;22.83;;;21.20;99.90;;;;;;4977391;28;20201;-68
2023/06/29 07:17:21;;;;;;;27.15;17.50;;;21.20;99.90;;;;;;4994998;28;20046;-69
2023/06/29 07:19:46;;;;;;;27.27;18.73;;;21.20;99.90;;;;;;4994679;28;20046;-69
2023/06/29 07:22:12;;;;;;;37.53;22.02;;;21.20;99.90;;;;;;4960851;28;20518;-69
2023/06/29 07:24:38;;;;;;;33.63;24.20;;;21.20;99.90;;;;;;4994260;28;20049;-70
2023/06/29 07:27:04;;;;;;;31.30;20.00;;;21.20;99.90;;;;;;4977695;28;20388;-68
2023/06/29 07:29:30;;;;;;;60.58;20.52;;;21.30;99.90;;;;;;4994678;28;20046;-69
2023/06/29 07:31:56;;;;;;;26.85;18.65;;;21.30;99.90;;;;;;4993737;28;20508;-67
2023/06/29 07:34:24;;;;;;;32.72;19.25;;;21.30;99.90;;;;;;4961236;28;20093;-69
2023/06/29 07:36:50;;;;;;;30.65;20.00;;;21.30;99.90;;;;;;4993857;28;20050;-74
2023/06/29 07:39:16;;;;;;;33.80;18.30;;;21.40;99.90;;;;;;4977062;28;20046;-70
2023/06/29 07:41:42;;;;;;;36.15;19.42;;;21.40;99.90;;;;;;4993813;28;20108;-69
2023/06/29 07:44:08;;;;;;;35.30;20.42;;;21.40;99.90;;;;;;4976849;28;20058;-69
2023/06/29 07:46:34;;;;;;;27.85;18.85;;;21.40;99.90;;;;;;4994533;28;20138;-69
2023/06/29 07:49:00;;;;;;;25.65;19.27;;;21.30;99.90;;;;;;4993621;28;20034;-68
2023/06/29 07:51:31;;;;;;;41.20;21.30;;;21.30;99.90;;;;;;4994531;28;20170;-70
2023/06/29 07:53:58;;;;;;;29.30;20.90;;;21.20;99.90;;;;;;4993791;28;20069;-70
2023/06/29 07:56:24;;;;;;;31.35;19.77;;;21.20;99.90;;;;;;4994156;28;20050;-71
2023/06/29 07:58:50;;;;;;;31.15;19.95;;;21.20;99.90;;;;;;4975883;28;20476;-69
2023/06/29 08:01:17;;;;;;;30.63;20.33;;;21.20;99.90;;;;;;4993595;28;20050;-69
2023/06/29 08:03:44;;;;;;;30.13;21.08;;;21.20;99.90;;;;;;4993036;28;20112;-75
2023/06/29 08:06:10;;;;;;;25.63;19.83;;;21.20;99.90;;;;;;4993944;28;20054;-69
2023/06/29 08:08:36;;;;;;;31.85;21.23;;;21.20;99.90;;;;;;4976013;28;20061;-69
2023/06/29 08:11:02;;;;;;;28.60;21.13;;;21.20;99.90;;;;;;4993392;28;20042;-68
2023/06/29 08:13:28;;;;;;;30.05;21.58;;;21.20;99.90;;;;;;4975784;28;20053;-69
2023/06/29 08:15:54;;;;;;;29.33;20.73;;;21.30;99.90;;;;;;4960049;28;20046;-69
2023/06/29 08:18:19;;;;;;;31.17;22.38;;;21.20;99.90;;;;;;4993327;28;20090;-68
2023/06/29 08:20:48;;;;;;;32.22;23.08;;;21.10;99.90;;;;;;4992831;28;20034;-74
2023/06/29 08:23:14;;;;;;;32.28;22.42;;;21.10;99.90;;;;;;4976471;28;20050;-70
2023/06/29 08:25:41;;;;;;;34.55;21.45;;;21.20;99.90;;;;;;4992970;28;20148;-70
2023/06/29 08:28:06;;;;;;;29.27;20.75;;;21.20;99.90;;;;;;4993074;28;20089;-69
2023/06/29 08:30:32;;;;;;;;;;;21.30;99.90;;;;;;4993786;28;20136;-68
2023/06/29 08:32:58;;;;;;;;;;;21.40;99.90;;;;;;4993235;28;20306;-70
2023/06/29 08:35:24;;;;;;;26.77;19.25;;;21.70;99.90;;;;;;4992978;28;19922;-69
2023/06/29 08:37:49;;;;;;;29.10;20.42;;;21.90;99.90;;;;;;4992792;28;20050;-75
2023/06/29 08:40:19;;;;;;;29.58;21.15;;;22.10;99.90;;;;;;4975507;28;20046;-71
2023/06/29 08:42:45;;;;;;;27.95;20.48;;;22.20;99.90;;;;;;4993236;28;20125;-70
2023/06/29 08:45:10;;;;;;;30.42;21.38;;;22.30;99.90;;;;;;4992581;28;20431;-72
2023/06/29 08:47:38;;;;;;;28.65;20.30;;;22.40;99.90;;;;;;4992871;28;20050;-70
2023/06/29 08:50:05;;;;;;;28.70;20.90;;;22.40;99.90;;;;;;4992551;28;20042;-69
2023/06/29 08:52:33;;;;;;;33.03;21.20;;;22.50;99.90;;;;;;4992621;28;20126;-70
2023/06/29 08:55:00;;;;;;;29.98;21.15;;;22.50;99.90;;;;;;4975350;28;20077;-70
2023/06/29 08:57:27;;;;;;;30.85;20.30;;;22.60;99.90;;;;;;4992715;28;20057;-70
2023/06/29 08:59:54;;;;;;;28.65;20.90;;;22.50;99.90;;;;;;4975511;28;20069;-70
2023/06/29 09:02:20;;;;;;;27.05;20.15;;;22.50;99.90;;;;;;4992479;28;20058;-70
2023/06/29 09:04:46;;;;;;;32.85;20.92;;;22.50;99.90;;;;;;4992357;28;20077;-70
2023/06/29 09:07:15;;;;;;;28.98;21.27;;;22.60;99.90;;;;;;4974899;28;20133;-69
2023/06/29 09:09:41;;;;;;;29.40;20.95;;;22.60;99.90;;;;;;4991580;28;20506;-70
2023/06/29 09:12:09;;;;;;;26.60;20.73;;;22.70;99.90;;;;;;4992281;28;20049;-68
2023/06/29 09:14:43;;;;;;;30.35;22.45;;;22.70;99.90;;;;;;4975172;28;20058;-70
2023/06/29 09:17:12;;;;;;;;;;;22.60;99.90;;;;;;4992495;28;20403;-69
2023/06/29 09:19:38;;;;;;;36.75;22.55;;;22.50;99.90;;;;;;4992498;28;20122;-70
2023/06/29 09:22:04;;;;;;;32.42;22.67;;;22.50;99.90;;;;;;4991734;28;20477;-71
2023/06/29 09:24:32;;;;;;;29.38;21.83;;;22.50;99.90;;;;;;4992445;28;20045;-70
2023/06/29 09:27:00;;;;;;;41.75;29.15;;;22.50;99.90;;;;;;4991946;28;20045;-71
2023/06/29 09:29:25;;;;;;;33.38;23.95;;;22.40;99.90;;;;;;4974875;28;20128;-70
2023/06/29 09:31:54;;;;;;;25.52;20.38;;;22.40;99.90;;;;;;4992247;28;20417;-70
